Station: Centre Island  

  Atmospheric Gas Attenuation - ITU Rec 676-11   ----------------- dB/100km -----------------
Date Time Temp RH % AH g/m3 Dew Point Wind Direction Speed kph Gust kph Barometer mB Rainfall Since 9am 24GHz 47GHz 76GHz 122GHz 134GHz 241GHz
01/09 14:10 29.3 53 15.48 18.7 28 33 1017.9 0 33.1 32.2 58.3 153.8 164.0 569.6
01/09 14:00 29.3 55 16.06 19.3 26 32 1018.2 0 34.3 33.2 60.6 160.2 171.8 596.8
01/09 13:50 29.1 52 15.02 18.2 28 32 1018.2 0 32.2 31.5 56.6 149.3 158.4 550.0
01/09 13:40 29.3 54 15.77 19 26 32 1018.2 0 33.7 32.7 59.5 157.0 167.9 583.2
01/09 13:30 29.7 58 17.31 20.5 26 30 1018.5 0 36.9 35.1 65.6 173.3 188.0 653.3
01/09 13:20 28.8 56 15.91 19.1 24 30 1018.6 0 34.1 33.1 60.4 159.6 170.9 593.7
01/09 13:10 27.9 58 15.69 18.9 20 26 1018.8 0 33.7 33.1 60.2 159.0 170.0 590.2
01/09 13:00 28.7 57 16.11 19.3 24 30 1019 0 34.5 33.5 61.4 162.1 173.9 604.1
01/09 12:50 28.6 58 16.3 19.5 22 32 1019.1 0 34.9 33.9 62.2 164.4 176.7 614.0
01/09 12:40 28.6 58 16.3 19.5 24 32 1019.2 0 34.9 33.9 62.2 164.4 176.8 614.0
01/09 12:30 29.4 53 15.56 18.8 24 30 1019.5 0 33.3 32.4 58.6 154.7 165.0 573.2
01/09 12:20 29 53 15.23 18.4 24 32 1019.5 0 32.6 32.0 57.5 151.9 161.5 560.9
01/09 12:10 28.9 55 15.71 18.9 24 32 1019.7 0 33.6 32.8 59.6 157.4 168.1 584.0
01/09 12:00 28.8 55 15.63 18.9 26 32 1020 0 33.5 32.7 59.4 156.7 167.3 581.1
01/09 11:50 27.7 58 15.52 18.7 28 33 1020 0 33.3 33.0 59.7 157.7 168.2 584.1
01/09 11:40 27.3 60 15.7 18.9 28 35 1020.2 0 33.7 33.4 60.8 160.6 171.6 595.8
01/09 11:30 27.9 56 15.15 18.3 28 39 1020.4 0 32.5 32.3 58.1 153.3 162.8 565.4
01/09 11:20 28.4 56 15.57 18.8 32 39 1020.4 0 33.4 32.8 59.4 156.9 167.4 581.5
01/09 11:10 27.9 62 16.77 19.9 32 39 1020.4 0 35.9 35.0 64.9 171.4 185.1 643.0
01/09 11:00 27.7 63 16.85 20 33 41 1020.6 0 36.1 35.2 65.4 172.8 186.7 648.6
01/09 10:50 27.7 63 16.85 20 32 41 1020.6 0 36.1 35.2 65.4 172.8 186.7 648.6
01/09 10:40 27.8 60 16.14 19.3 33 46 1020.6 0 34.6 34.0 62.3 164.5 176.6 613.3
01/09 10:30 27.8 64 17.22 20.4 33 43 1020.8 0 36.9 35.9 66.9 176.9 191.7 666.1
01/09 10:20 26.4 68 16.93 20 32 41 1020.7 0 36.4 35.9 66.9 176.7 191.1 663.7
01/09 10:10 27.4 64 16.84 20 32 35 1020.7 0 36.1 35.4 65.6 173.4 187.3 650.7
01/09 10:00 27 60 15.44 18.6 33 39 1020.8 0 33.2 33.1 60.0 158.3 168.8 585.9
01/09 09:50 27 61 15.7 18.8 33 39 1020.6 0 33.8 33.5 61.1 161.2 172.3 598.3
01/09 09:40 26.6 59 14.85 17.9 35 41 1020.5 0 32.0 32.3 57.8 152.6 161.5 560.7
01/09 09:30 26.7 59 14.93 18 33 39 1020.6 0 32.2 32.4 58.1 153.3 162.4 563.8
01/09 09:20 26.8 59 15.02 18.1 33 37 1020.4 0 32.4 32.5 58.4 154.0 163.4 567.2
01/09 09:10 26.4 55 13.69 16.6 35 39 1020.3 0 29.6 30.4 53.2 140.3 146.4 507.9
01/09 09:00 26.2 54 13.29 16.2 35 39 1020.3 0 28.8 29.8 51.7 136.4 141.5 490.9
01/09 08:50 26.3 52 12.87 15.7 33 39 1020.1 0 27.9 29.1 50.0 131.8 135.9 471.2
01/09 08:40 26.3 53 13.12 16 32 37 1020 0 28.4 29.5 51.0 134.4 139.1 482.4
01/09 08:30 26.2 52 12.8 15.6 30 35 1020 0 27.7 29.0 49.8 131.2 135.2 468.6
01/09 08:20 25.9 50 12.11 14.7 32 35 1019.8 0 26.3 28.1 47.3 124.5 126.9 439.5
01/09 08:10 25.9 50 12.11 14.7 30 37 1019.8 0 26.3 28.1 47.3 124.5 126.9 439.5
01/09 08:00 26.1 50 12.24 14.9 28 35 1019.9 0 26.6 28.2 47.7 125.6 128.2 444.2
01/09 07:50 25.4 52 12.24 14.8 30 32 1019.7 0 26.6 28.4 48.1 126.6 129.3 448.1
01/09 07:40 25.5 52 12.31 14.9 32 37 1019.3 0 26.8 28.5 48.3 127.2 130.0 450.5
01/09 07:30 24.9 53 12.13 14.7 33 37 1019 0 26.4 28.4 47.9 126.2 128.7 445.7
01/09 07:20 24.8 53 12.06 14.6 33 41 1018.7 0 26.3 28.3 47.7 125.6 127.9 443.1
01/09 07:10 24.6 55 12.38 15 35 39 1018.6 0 27.0 28.8 49.1 129.3 132.4 458.6
01/09 07:00 24.6 54 12.15 14.7 33 39 1018.6 0 26.5 28.5 48.2 126.8 129.4 448.2
01/09 06:50 24.3 56 12.39 15 30 35 1018.3 0 27.0 29.0 49.3 129.8 133.0 460.7
01/09 06:40 23.9 59 12.76 15.4 28 32 1018.3 0 27.8 29.7 51.0 134.4 138.5 480.0
01/09 06:30 23.8 60 12.91 15.6 28 33 1018.4 0 28.1 30.0 51.7 136.2 140.7 487.6
01/09 06:20 23.6 60 12.76 15.4 28 32 1018.1 0 27.8 29.8 51.2 134.9 139.0 481.8
01/09 06:10 23.8 59 12.69 15.3 30 37 1018 0 27.7 29.6 50.8 133.8 137.7 477.3
01/09 06:00 24 60 13.05 15.8 26 33 1017.9 0 28.4 30.1 52.1 137.3 142.1 492.7
01/09 05:50 23.8 61 13.12 15.8 24 30 1017.6 0 28.6 30.3 52.5 138.4 143.4 497.1
01/09 05:40 23.7 59 12.62 15.2 24 28 1017.4 0 27.5 29.5 50.5 133.2 136.9 474.4
01/09 05:30 23.9 60 12.98 15.7 26 30 1017.3 0 28.3 30.0 51.9 136.7 141.3 489.8
01/09 05:20 23.9 59 12.76 15.4 28 35 1017.1 0 27.8 29.6 51.0 134.3 138.4 479.6
01/09 05:10 24.1 59 12.91 15.6 28 33 1016.9 0 28.1 29.8 51.4 135.5 140.0 485.2
01/09 05:00 24.1 58 12.69 15.3 28 32 1016.9 0 27.7 29.4 50.5 133.2 137.1 475.1
01/09 04:50 24.2 58 12.76 15.4 28 33 1016.8 0 27.8 29.5 50.7 133.7 137.8 477.6
01/09 04:40 24.5 58 12.98 15.7 28 33 1016.7 0 28.3 29.8 51.4 135.6 140.2 485.9
01/09 04:30 24.4 58 12.91 15.6 26 32 1016.8 0 28.1 29.7 51.2 135.0 139.4 483.3
01/09 04:20 24.1 58 12.69 15.3 22 28 1016.6 0 27.7 29.4 50.5 133.1 137.1 474.9
01/09 04:10 23.7 65 13.9 16.7 19 22 1016.7 0 30.2 31.6 55.8 147.1 154.1 534.3
01/09 04:00 23.6 65 13.82 16.6 17 22 1016.9 0 30.1 31.5 55.5 146.4 153.2 531.2
01/09 03:50 23.7 66 14.12 17 19 22 1016.8 0 30.7 32.0 56.7 149.6 157.1 544.9
01/09 03:40 23.6 62 13.19 15.9 19 22 1016.9 0 28.8 30.4 52.9 139.4 144.7 501.4
01/09 03:30 23.4 60 12.62 15.2 17 20 1017 0 27.6 29.6 50.7 133.6 137.4 476.1
01/09 03:20 23.4 66 13.88 16.7 15 17 1016.9 0 30.2 31.7 55.9 147.5 154.4 535.5
01/09 03:10 23.5 68 14.38 17.3 15 17 1016.9 0 31.3 32.5 57.9 152.9 161.2 559.0
01/09 03:00 23.5 66 13.96 16.8 15 17 1017 0 30.4 31.8 56.2 148.2 155.3 538.7
01/09 02:50 23.5 67 14.17 17 15 17 1017 0 30.8 32.1 57.0 150.5 158.2 548.8
01/09 02:40 23.6 65 13.82 16.6 15 19 1017.1 0 30.1 31.5 55.5 146.4 153.2 531.3
01/09 02:30 23.5 64 13.53 16.3 17 20 1017.3 0 29.5 31.1 54.4 143.4 149.5 518.2
01/09 02:20 23.3 67 14.01 16.8 17 17 1017.3 0 30.5 31.9 56.5 149.2 156.5 542.6
01/09 02:10 23.2 70 14.55 17.4 15 17 1017.4 0 31.7 32.9 58.9 155.5 164.2 569.7
01/09 02:00 23.2 76 15.8 18.7 13 15 1017.6 0 34.3 35.1 64.4 170.1 182.2 632.2
01/09 01:50 23.1 78 16.12 19.1 13 17 1017.6 0 35.0 35.7 65.9 174.1 187.1 649.4
01/09 01:40 23 81 16.65 19.6 13 13 1017.8 0 36.1 36.8 68.4 180.8 195.3 677.8
01/09 01:30 23 83 17.06 20 13 17 1018 0 37.0 37.5 70.3 185.9 201.5 699.4
01/09 01:20 23 83 17.06 20 11 13 1018 0 37.0 37.5 70.3 185.9 201.5 699.4
01/09 01:10 23.2 84 17.46 20.3 11 15 1018.1 0 37.8 38.2 72.0 190.4 207.0 718.8
01/09 01:00 23.4 82 17.24 20.2 13 15 1018.3 0 37.3 37.7 70.8 187.2 203.2 705.3
01/09 00:50 23.6 81 17.23 20.1 13 17 1018.3 0 37.3 37.6 70.6 186.6 202.5 703.0
01/09 00:40 23.7 76 16.26 19.2 15 19 1018.4 0 35.2 35.8 66.1 174.6 187.8 651.8
01/09 00:30 23.7 77 16.47 19.4 15 19 1018.5 0 35.7 36.2 67.0 177.1 190.9 662.7
01/09 00:20 23.5 77 16.28 19.2 15 19 1018.5 0 35.3 35.9 66.4 175.3 188.6 654.6
01/09 00:10 23.5 77 16.28 19.2 15 19 1018.5 0 35.3 35.9 66.4 175.3 188.6 654.6
01/09 00:00 23.5 77 16.28 19.2 17 20 1018.8 0 35.3 35.9 66.4 175.3 188.6 654.8
31/08 23:50 23.6 76 16.16 19.1 19 20 1018.8 0 35.0 35.6 65.7 173.7 186.6 647.8
31/08 23:40 23.7 76 16.26 19.2 19 20 1018.8 0 35.2 35.8 66.1 174.6 187.9 652.0
31/08 23:30 23.7 76 16.26 19.2 19 20 1018.9 0 35.2 35.8 66.1 174.6 187.9 652.1
31/08 23:20 23.7 77 16.47 19.4 19 22 1018.9 0 35.7 36.2 67.1 177.2 191.0 662.8
31/08 23:10 23.8 76 16.35 19.3 19 24 1019 0 35.4 35.9 66.4 175.5 189.0 655.9
31/08 23:00 23.7 75 16.04 19 20 22 1019 0 34.8 35.4 65.1 172.0 184.7 640.9
31/08 22:50 23.9 77 16.66 19.6 20 22 1019.1 0 36.1 36.4 67.8 179.0 193.3 671.0
31/08 22:40 23.8 76 16.35 19.3 20 24 1019.2 0 35.4 35.9 66.5 175.5 189.0 656.0
31/08 22:30 23.8 76 16.35 19.3 22 26 1019.3 0 35.4 35.9 66.5 175.6 189.0 656.0
31/08 22:20 24 78 16.97 19.9 20 24 1019.3 0 36.7 37.0 69.1 182.6 197.7 686.2
31/08 22:10 24 77 16.75 19.7 22 26 1019.4 0 36.2 36.6 68.1 179.9 194.4 674.9
31/08 22:00 24 79 17.19 20.1 22 26 1019.4 0 37.2 37.4 70.1 185.3 201.0 697.7
31/08 21:50 24 78 16.97 19.9 22 26 1019.4 0 36.7 37.0 69.1 182.6 197.7 686.3
31/08 21:40 24 79 17.19 20.1 22 26 1019.5 0 37.2 37.4 70.1 185.3 201.0 697.8

Last Refresh: 01-Sep-2026 14:17:51

Bureau of Meteorology